createdAt,value
2023-04-11T00:00:02.589Z,16.28
2023-04-11T00:01:12.512Z,16.27
2023-04-11T00:02:20.309Z,16.26
2023-04-11T00:03:26.473Z,16.27
2023-04-11T00:04:29.503Z,16.26
2023-04-11T00:05:32.807Z,16.25
2023-04-11T00:06:35.114Z,16.26
2023-04-11T00:07:38.541Z,16.26
2023-04-11T00:08:40.975Z,16.25
2023-04-11T00:09:44.683Z,16.25
2023-04-11T00:10:47.053Z,16.24
2023-04-11T00:11:50.682Z,16.24
2023-04-11T00:12:56.807Z,16.25
2023-04-11T00:14:00.199Z,16.24
2023-04-11T00:15:05.475Z,16.22
2023-04-11T00:16:10.155Z,16.24
2023-04-11T00:17:12.734Z,16.24
2023-04-11T00:18:16.116Z,16.24
2023-04-11T00:19:18.507Z,16.24
2023-04-11T00:20:22.122Z,16.24
2023-04-11T00:21:24.529Z,16.24
2023-04-11T00:22:28.206Z,16.23
2023-04-11T00:23:33.309Z,16.24
2023-04-11T00:24:36.751Z,16.23
2023-04-11T00:25:39.278Z,16.22
2023-04-11T00:26:42.564Z,16.22
2023-04-11T00:27:44.910Z,16.22
2023-04-11T00:28:48.240Z,16.22
2023-04-11T00:29:50.602Z,16.22
2023-04-11T00:30:55.479Z,16.22
2023-04-11T00:31:57.984Z,16.22
2023-04-11T00:33:01.457Z,16.22
2023-04-11T00:34:03.903Z,16.20
2023-04-11T00:35:08.853Z,16.22
2023-04-11T00:36:11.968Z,16.20
2023-04-11T00:37:15.342Z,16.20
2023-04-11T00:38:17.748Z,16.20
2023-04-11T00:39:22.758Z,16.20
2023-04-11T00:40:25.551Z,16.20
2023-04-11T00:41:29.073Z,16.19
2023-04-11T00:42:32.140Z,16.20
2023-04-11T00:43:35.489Z,16.19
2023-04-11T00:44:38.115Z,16.20
2023-04-11T00:45:41.496Z,16.19
2023-04-11T00:46:46.916Z,16.18
2023-04-11T00:47:51.644Z,16.18
2023-04-11T00:48:54.523Z,16.19
2023-04-11T00:49:58.419Z,16.19
2023-04-11T00:51:01.523Z,16.19
2023-04-11T00:52:05.940Z,16.17
2023-04-11T00:53:09.262Z,16.17
2023-04-11T00:54:13.308Z,16.17
2023-04-11T00:55:16.986Z,16.17
2023-04-11T00:56:20.949Z,16.17
2023-04-11T00:57:26.200Z,16.16
2023-04-11T00:58:29.925Z,16.16
2023-04-11T00:59:33.142Z,16.16
2023-04-11T01:00:39.009Z,16.16
2023-04-11T01:01:42.664Z,16.14
2023-04-11T01:02:47.897Z,16.14
2023-04-11T01:03:51.018Z,16.15
2023-04-11T01:04:54.943Z,16.15
2023-04-11T01:05:57.572Z,16.14
2023-04-11T01:07:06.360Z,16.13
2023-04-11T01:08:09.210Z,16.13
2023-04-11T01:09:12.745Z,16.13
2023-04-11T01:10:17.250Z,16.13
2023-04-11T01:11:21.187Z,16.13
2023-04-11T01:12:24.446Z,16.13
2023-04-11T01:13:28.735Z,16.12
2023-04-11T01:14:31.992Z,16.13
2023-04-11T01:15:35.430Z,16.12
2023-04-11T01:16:38.086Z,16.13
2023-04-11T01:17:43.072Z,16.12
2023-04-11T01:18:46.872Z,16.11
2023-04-11T01:19:50.392Z,16.11
2023-04-11T01:20:53.361Z,16.12
2023-04-11T01:21:59.044Z,16.11
2023-04-11T01:23:03.515Z,16.10
2023-04-11T01:24:08.863Z,16.10
2023-04-11T01:25:12.641Z,16.09
2023-04-11T01:26:16.367Z,16.08
2023-04-11T01:27:19.968Z,16.09
2023-04-11T01:28:23.919Z,16.09
2023-04-11T01:29:26.268Z,16.09
2023-04-11T01:30:29.540Z,16.08
2023-04-11T01:31:33.029Z,16.09
2023-04-11T01:32:36.631Z,16.09
2023-04-11T01:33:39.400Z,16.08
2023-04-11T01:34:43.082Z,16.09
2023-04-11T01:35:45.604Z,16.08
2023-04-11T01:36:49.758Z,16.09
2023-04-11T01:37:52.293Z,16.08
2023-04-11T01:38:56.274Z,16.09
2023-04-11T01:40:00.721Z,16.07
2023-04-11T01:41:04.362Z,16.07
2023-04-11T01:42:07.218Z,16.07
2023-04-11T01:43:11.360Z,16.07
2023-04-11T01:44:14.219Z,16.08
2023-04-11T01:45:17.913Z,16.07
2023-04-11T01:46:20.819Z,16.07
2023-04-11T01:47:24.553Z,16.06
2023-04-11T01:48:26.969Z,16.06
2023-04-11T01:49:30.833Z,16.05
2023-04-11T01:50:33.560Z,16.05
2023-04-11T01:51:37.589Z,16.05
2023-04-11T01:52:39.960Z,16.05
2023-04-11T01:53:43.422Z,16.06
2023-04-11T01:54:45.849Z,16.06
2023-04-11T01:55:52.739Z,16.05
2023-04-11T01:56:55.233Z,16.04
2023-04-11T01:57:58.490Z,16.05
2023-04-11T01:59:01.254Z,16.03
2023-04-11T02:00:06.151Z,16.04
2023-04-11T02:01:09.536Z,16.03
2023-04-11T02:02:13.165Z,16.03
2023-04-11T02:03:17.647Z,16.02
2023-04-11T02:04:21.524Z,16.02
2023-04-11T02:05:24.128Z,16.02
2023-04-11T02:06:27.783Z,16.03
2023-04-11T02:07:30.279Z,16.02
2023-04-11T02:08:33.572Z,16.02
2023-04-11T02:09:36.986Z,16.03
2023-04-11T02:10:40.333Z,16.03
2023-04-11T02:11:44.034Z,16.02
2023-04-11T02:12:47.472Z,16.03
2023-04-11T02:13:50.401Z,16.02
2023-04-11T02:14:53.758Z,16.02
2023-04-11T02:15:56.145Z,16.02
2023-04-11T02:17:00.044Z,16.01
2023-04-11T02:18:02.423Z,16.01
2023-04-11T02:19:05.712Z,16.00
2023-04-11T02:20:09.825Z,16.00
2023-04-11T02:21:13.458Z,16.00
2023-04-11T02:22:16.493Z,15.99
2023-04-11T02:23:19.783Z,15.98
2023-04-11T02:24:22.358Z,15.98
2023-04-11T02:25:25.655Z,15.98
2023-04-11T02:26:28.016Z,15.96
2023-04-11T02:27:33.179Z,15.98
2023-04-11T02:28:36.733Z,15.97
2023-04-11T02:29:40.006Z,15.96
2023-04-11T02:30:42.439Z,15.95
2023-04-11T02:31:46.083Z,15.96
2023-04-11T02:32:49.527Z,15.95
2023-04-11T02:33:52.901Z,15.95
2023-04-11T02:34:56.053Z,15.95
2023-04-11T02:35:59.395Z,15.95
2023-04-11T02:37:02.038Z,15.94
2023-04-11T02:38:04.431Z,15.94
2023-04-11T02:39:07.781Z,15.95
2023-04-11T02:40:10.785Z,15.95
2023-04-11T02:41:14.069Z,15.94
2023-04-11T02:42:16.761Z,15.95
2023-04-11T02:43:21.310Z,15.95
2023-04-11T02:44:23.784Z,15.93
2023-04-11T02:45:27.053Z,15.94
2023-04-11T02:46:29.758Z,15.92
2023-04-11T02:47:33.134Z,15.93
2023-04-11T02:48:35.570Z,15.92
2023-04-11T02:49:41.232Z,15.91
2023-04-11T02:50:43.970Z,15.92
2023-04-11T02:51:47.256Z,15.92
2023-04-11T02:52:49.726Z,15.93
2023-04-11T02:53:53.428Z,15.91
2023-04-11T02:54:56.004Z,15.92
2023-04-11T02:55:59.363Z,15.91
2023-04-11T02:57:02.342Z,15.91
2023-04-11T02:58:05.828Z,15.91
2023-04-11T02:59:09.949Z,15.92
2023-04-11T03:00:23.840Z,15.91
2023-04-11T03:01:36.649Z,15.91
2023-04-11T03:02:46.067Z,15.88
2023-04-11T03:03:56.420Z,15.90
2023-04-11T03:05:09.152Z,15.88
2023-04-11T03:06:14.280Z,15.87
2023-04-11T03:07:25.927Z,15.87
2023-04-11T03:08:31.219Z,15.86
2023-04-11T03:09:44.265Z,15.86
2023-04-11T03:10:53.807Z,15.86
2023-04-11T03:12:00.675Z,15.85
2023-04-11T03:13:09.915Z,15.84
2023-04-11T03:14:18.014Z,15.84
2023-04-11T03:15:21.212Z,15.84
2023-04-11T03:16:25.794Z,15.85
2023-04-11T03:17:28.269Z,15.84
2023-04-11T03:18:31.666Z,15.85
2023-04-11T03:19:34.143Z,15.84
2023-04-11T03:20:37.659Z,15.85
2023-04-11T03:21:50.436Z,15.85
2023-04-11T03:22:53.749Z,15.83
2023-04-11T03:23:56.107Z,15.84
2023-04-11T03:24:59.345Z,15.84
2023-04-11T03:26:03.469Z,15.84
2023-04-11T03:27:06.838Z,15.85
2023-04-11T03:28:09.314Z,15.84
2023-04-11T03:29:12.591Z,15.85
2023-04-11T03:30:16.465Z,15.84
2023-04-11T03:31:20.315Z,15.85
2023-04-11T03:32:22.986Z,15.85
2023-04-11T03:33:26.274Z,15.85
2023-04-11T03:34:28.694Z,15.85
2023-04-11T03:35:31.930Z,15.85
2023-04-11T03:36:35.599Z,15.84
2023-04-11T03:37:38.023Z,15.83
2023-04-11T03:38:41.450Z,15.83
2023-04-11T03:39:43.839Z,15.83
2023-04-11T03:40:47.496Z,15.84
2023-04-11T03:41:50.185Z,15.84
2023-04-11T03:42:54.048Z,15.83
2023-04-11T03:43:56.375Z,15.84
2023-04-11T03:44:59.604Z,15.84
2023-04-11T03:46:03.448Z,15.84
2023-04-11T03:47:06.862Z,15.84
2023-04-11T03:48:09.824Z,15.83
2023-04-11T03:49:13.287Z,15.82
2023-04-11T03:50:15.656Z,15.84
2023-04-11T03:51:18.931Z,15.83
2023-04-11T03:52:21.250Z,15.83
2023-04-11T03:53:24.598Z,15.83
2023-04-11T03:54:26.923Z,15.82
2023-04-11T03:55:30.256Z,15.82
2023-04-11T03:56:32.637Z,15.82
2023-04-11T03:57:36.439Z,15.81
2023-04-11T03:58:39.339Z,15.82
2023-04-11T03:59:42.627Z,15.81
2023-04-11T04:00:44.988Z,15.81
2023-04-11T04:01:49.899Z,15.81
2023-04-11T04:02:52.492Z,15.81
2023-04-11T04:03:56.870Z,15.81
2023-04-11T04:04:59.979Z,15.80
2023-04-11T04:06:03.306Z,15.81
2023-04-11T04:07:05.649Z,15.81
2023-04-11T04:08:09.406Z,15.81
2023-04-11T04:09:12.438Z,15.80
2023-04-11T04:10:15.844Z,15.80
2023-04-11T04:11:18.231Z,15.80
2023-04-11T04:12:22.778Z,15.79
2023-04-11T04:13:25.297Z,15.81
2023-04-11T04:14:28.653Z,15.81
2023-04-11T04:15:31.026Z,15.80
2023-04-11T04:16:34.347Z,15.79
2023-04-11T04:17:38.147Z,15.80
2023-04-11T04:18:41.448Z,15.79
2023-04-11T04:19:44.451Z,15.79
2023-04-11T04:20:47.843Z,15.78
2023-04-11T04:21:50.319Z,15.78
2023-04-11T04:22:53.966Z,15.80
2023-04-11T04:23:56.865Z,15.77
2023-04-11T04:25:00.479Z,15.79
2023-04-11T04:26:03.334Z,15.78
2023-04-11T04:27:09.414Z,15.78
2023-04-11T04:28:11.751Z,15.78
2023-04-11T04:29:18.199Z,15.78
2023-04-11T04:30:22.146Z,15.77
2023-04-11T04:31:29.977Z,15.77
2023-04-11T04:32:32.438Z,15.76
2023-04-11T04:33:37.153Z,15.76
2023-04-11T04:34:46.696Z,15.76
2023-04-11T04:35:52.069Z,15.74
2023-04-11T04:36:59.625Z,15.75
2023-04-11T04:38:06.427Z,15.73
2023-04-11T04:39:10.371Z,15.74
2023-04-11T04:40:13.990Z,15.73
2023-04-11T04:41:17.335Z,15.73
2023-04-11T04:42:19.962Z,15.73
2023-04-11T04:43:27.488Z,15.73
2023-04-11T04:44:30.243Z,15.73
2023-04-11T04:45:34.046Z,15.72
2023-04-11T04:46:37.834Z,15.72
2023-04-11T04:47:41.232Z,15.73
2023-04-11T04:48:44.964Z,15.72
2023-04-11T04:49:48.392Z,15.71
2023-04-11T04:50:50.820Z,15.73
2023-04-11T04:51:54.421Z,15.72
2023-04-11T04:52:56.744Z,15.73
2023-04-11T04:54:00.729Z,15.73
2023-04-11T04:55:04.045Z,15.74
2023-04-11T04:56:07.339Z,15.73
2023-04-11T04:57:10.897Z,15.74
2023-04-11T04:58:13.223Z,15.73
2023-04-11T04:59:16.753Z,15.74
2023-04-11T05:00:21.797Z,15.72
2023-04-11T05:01:29.904Z,15.72
2023-04-11T05:02:32.714Z,15.73
2023-04-11T05:03:39.024Z,15.72
2023-04-11T05:04:44.875Z,15.72
2023-04-11T05:05:53.877Z,15.71
2023-04-11T05:06:57.375Z,15.71
2023-04-11T05:08:00.277Z,15.70
2023-04-11T05:09:05.984Z,15.70
2023-04-11T05:10:09.100Z,15.70
2023-04-11T05:11:12.405Z,15.70
2023-04-11T05:12:16.098Z,15.70
2023-04-11T05:13:19.568Z,15.69
2023-04-11T05:14:22.150Z,15.69
2023-04-11T05:15:25.501Z,15.69
2023-04-11T05:16:28.072Z,15.69
2023-04-11T05:17:31.979Z,15.70
2023-04-11T05:18:34.414Z,15.68
2023-04-11T05:19:37.733Z,15.69
2023-04-11T05:20:41.699Z,15.69
2023-04-11T05:21:45.099Z,15.68
2023-04-11T05:22:49.451Z,15.68
2023-04-11T05:23:52.800Z,15.69
2023-04-11T05:24:57.384Z,15.69
2023-04-11T05:26:01.249Z,15.69
2023-04-11T05:27:03.692Z,15.67
2023-04-11T05:28:07.228Z,15.68
2023-04-11T05:29:11.544Z,15.69
2023-04-11T05:30:15.355Z,15.67
2023-04-11T05:31:18.970Z,15.68
2023-04-11T05:32:22.361Z,15.67
2023-04-11T05:33:26.209Z,15.67
2023-04-11T05:34:31.376Z,15.67
2023-04-11T05:35:34.839Z,15.68
2023-04-11T05:36:38.645Z,15.68
2023-04-11T05:37:43.279Z,15.67
2023-04-11T05:38:46.254Z,15.68
2023-04-11T05:39:49.847Z,15.67
2023-04-11T05:40:52.657Z,15.66
2023-04-11T05:41:56.875Z,15.66
2023-04-11T05:42:59.502Z,15.66
2023-04-11T05:44:02.928Z,15.66
2023-04-11T05:45:06.453Z,15.67
2023-04-11T05:46:10.727Z,15.67
2023-04-11T05:47:13.143Z,15.66
2023-04-11T05:48:25.206Z,15.67
2023-04-11T05:49:35.852Z,15.65
2023-04-11T05:50:38.812Z,15.66
2023-04-11T05:51:43.400Z,15.64
2023-04-11T05:52:45.903Z,15.64
2023-04-11T05:53:49.275Z,15.65
2023-04-11T05:54:51.970Z,15.64
2023-04-11T05:55:55.507Z,15.64
2023-04-11T05:56:57.921Z,15.63
2023-04-11T05:58:01.544Z,15.63
2023-04-11T05:59:04.997Z,15.63
2023-04-11T06:00:13.212Z,15.62
2023-04-11T06:01:18.743Z,15.62
2023-04-11T06:02:22.209Z,15.61
2023-04-11T06:03:24.799Z,15.61
2023-04-11T06:04:28.849Z,15.62
2023-04-11T06:05:31.909Z,15.61
2023-04-11T06:06:36.537Z,15.62
2023-04-11T06:07:41.459Z,15.63
2023-04-11T06:08:44.856Z,15.62
2023-04-11T06:09:47.786Z,15.61
2023-04-11T06:10:51.039Z,15.61
2023-04-11T06:11:53.745Z,15.62
2023-04-11T06:12:57.535Z,15.63
2023-04-11T06:13:59.953Z,15.62
2023-04-11T06:15:04.040Z,15.63
2023-04-11T06:16:09.353Z,15.62
2023-04-11T06:17:11.978Z,15.62
2023-04-11T06:18:15.944Z,15.62
2023-04-11T06:19:18.270Z,15.63
2023-04-11T06:20:22.716Z,15.63
2023-04-11T06:21:26.411Z,15.62
2023-04-11T06:22:28.811Z,15.62
2023-04-11T06:23:33.736Z,15.63
2023-04-11T06:24:38.192Z,15.62
2023-04-11T06:25:41.662Z,15.61
2023-04-11T06:26:44.019Z,15.59
2023-04-11T06:27:48.011Z,15.58
2023-04-11T06:28:51.342Z,15.58
2023-04-11T06:29:53.857Z,15.56
2023-04-11T06:30:57.116Z,15.53
2023-04-11T06:31:59.785Z,15.52
2023-04-11T06:33:03.168Z,15.48
2023-04-11T06:34:05.634Z,15.44
2023-04-11T06:35:09.603Z,15.40
2023-04-11T06:36:13.374Z,15.38
2023-04-11T06:37:15.836Z,15.35
2023-04-11T06:38:19.232Z,15.35
2023-04-11T06:39:22.993Z,15.35
2023-04-11T06:40:26.669Z,15.34
2023-04-11T06:41:29.067Z,15.36
2023-04-11T06:42:32.777Z,15.38
2023-04-11T06:43:35.265Z,15.40
2023-04-11T06:44:39.407Z,15.42
2023-04-11T06:45:41.817Z,15.43
2023-04-11T06:46:45.199Z,15.46
2023-04-11T06:47:48.630Z,15.49
2023-04-11T06:48:50.995Z,15.51
2023-04-11T06:49:54.647Z,15.52
2023-04-11T06:50:57.965Z,15.55
2023-04-11T06:52:00.419Z,15.56
2023-04-11T06:53:03.751Z,15.58
2023-04-11T06:54:08.001Z,15.59
2023-04-11T06:55:15.645Z,15.61
2023-04-11T06:56:18.189Z,15.61
2023-04-11T06:57:22.086Z,15.61
2023-04-11T06:58:24.792Z,15.62
2023-04-11T06:59:28.078Z,15.62
2023-04-11T07:00:31.347Z,15.63
2023-04-11T07:01:35.748Z,15.65
2023-04-11T07:02:41.149Z,15.67
2023-04-11T07:03:44.215Z,15.67
2023-04-11T07:04:47.723Z,15.69
2023-04-11T07:05:51.800Z,15.70
2023-04-11T07:06:55.600Z,15.70
2023-04-11T07:07:58.328Z,15.73
2023-04-11T07:09:02.581Z,15.73
2023-04-11T07:10:07.037Z,15.73
2023-04-11T07:11:12.083Z,15.74
2023-04-11T07:12:15.689Z,15.75
2023-04-11T07:13:18.323Z,15.78
2023-04-11T07:14:21.758Z,15.81
2023-04-11T07:15:25.064Z,15.80
2023-04-11T07:16:28.140Z,15.80
2023-04-11T07:17:32.019Z,15.81
2023-04-11T07:18:34.390Z,15.82
2023-04-11T07:19:38.143Z,15.82
2023-04-11T07:20:40.523Z,15.82
2023-04-11T07:21:43.900Z,15.82
2023-04-11T07:22:46.265Z,15.82
2023-04-11T07:23:49.949Z,15.81
2023-04-11T07:24:52.616Z,15.83
2023-04-11T07:25:55.942Z,15.83
2023-04-11T07:27:01.907Z,15.84
2023-04-11T07:28:08.572Z,15.84
2023-04-11T07:29:15.030Z,15.84
2023-04-11T07:30:17.960Z,15.84
2023-04-11T07:31:22.793Z,15.84
2023-04-11T07:32:26.413Z,15.84
2023-04-11T07:33:29.019Z,15.86
2023-04-11T07:34:33.313Z,15.86
2023-04-11T07:35:35.971Z,15.87
2023-04-11T07:36:39.349Z,15.87
2023-04-11T07:37:42.511Z,15.87
2023-04-11T07:38:46.973Z,15.89
2023-04-11T07:39:49.542Z,15.87
2023-04-11T07:40:52.876Z,15.90
2023-04-11T07:41:55.642Z,15.91
2023-04-11T07:43:01.892Z,15.91
2023-04-11T07:44:04.761Z,15.90
2023-04-11T07:45:09.282Z,15.90
2023-04-11T07:46:15.589Z,15.91
2023-04-11T07:47:19.529Z,15.92
2023-04-11T07:48:23.112Z,15.90
2023-04-11T07:49:26.395Z,15.90
2023-04-11T07:50:28.823Z,15.91
2023-04-11T07:51:33.157Z,15.92
2023-04-11T07:52:40.543Z,15.91
2023-04-11T07:53:43.313Z,15.92
2023-04-11T07:54:46.635Z,15.93
2023-04-11T07:55:49.061Z,15.95
2023-04-11T07:56:52.409Z,15.95
2023-04-11T07:57:55.003Z,15.97
2023-04-11T07:59:01.426Z,15.97
2023-04-11T08:00:04.500Z,15.98
2023-04-11T08:01:21.728Z,15.99
2023-04-11T08:02:26.522Z,16.00
2023-04-11T08:03:30.531Z,16.01
2023-04-11T08:04:34.824Z,16.01
2023-04-11T08:05:38.996Z,16.02
2023-04-11T08:06:41.585Z,16.02
2023-04-11T08:07:44.939Z,15.99
2023-04-11T08:08:49.492Z,15.98
2023-04-11T08:09:51.858Z,15.96
2023-04-11T08:10:55.323Z,15.94
2023-04-11T08:11:58.292Z,15.91
2023-04-11T08:13:02.353Z,15.89
2023-04-11T08:14:07.251Z,15.88
2023-04-11T08:15:10.343Z,15.86
2023-04-11T08:16:15.572Z,15.85
2023-04-11T08:17:27.714Z,15.84
2023-04-11T08:18:32.991Z,15.83
2023-04-11T08:19:36.981Z,15.83
2023-04-11T08:20:40.985Z,15.82
2023-04-11T08:21:44.654Z,15.83
2023-04-11T08:22:47.674Z,15.85
2023-04-11T08:23:51.665Z,15.86
2023-04-11T08:24:54.076Z,15.86
2023-04-11T08:25:57.556Z,15.86
2023-04-11T08:27:07.101Z,15.88
2023-04-11T08:28:11.525Z,15.88
2023-04-11T08:29:16.681Z,15.89
2023-04-11T08:30:19.135Z,15.88
2023-04-11T08:31:23.060Z,15.90
2023-04-11T08:32:25.801Z,15.90
2023-04-11T08:33:29.219Z,15.92
2023-04-11T08:34:33.691Z,15.92
2023-04-11T08:35:37.077Z,15.93
2023-04-11T08:36:42.846Z,15.94
2023-04-11T08:37:45.995Z,15.96
2023-04-11T08:38:49.320Z,15.97
2023-04-11T08:39:51.699Z,15.98
2023-04-11T08:40:56.765Z,15.98
2023-04-11T08:42:01.764Z,15.98
2023-04-11T08:43:10.095Z,15.99
2023-04-11T08:44:13.482Z,16.01
2023-04-11T08:45:19.668Z,16.00
2023-04-11T08:46:23.234Z,16.03
2023-04-11T08:47:26.681Z,16.06
2023-04-11T08:48:33.309Z,16.07
2023-04-11T08:49:35.891Z,16.10
2023-04-11T08:50:41.048Z,16.13
2023-04-11T08:51:45.881Z,16.16
2023-04-11T08:52:50.815Z,16.20
2023-04-11T08:53:58.085Z,16.23
2023-04-11T08:55:01.764Z,16.25
2023-04-11T08:56:06.562Z,16.26
2023-04-11T08:57:09.312Z,16.29
2023-04-11T08:58:12.703Z,16.32
2023-04-11T08:59:16.167Z,16.35
2023-04-11T09:00:25.417Z,16.35
2023-04-11T09:01:32.786Z,16.38
2023-04-11T09:02:57.788Z,16.39
2023-04-11T09:04:03.011Z,16.39
2023-04-11T09:05:05.979Z,16.40
2023-04-11T09:06:11.664Z,16.43
2023-04-11T09:07:15.731Z,16.44
2023-04-11T09:08:20.718Z,16.47
2023-04-11T09:09:29.995Z,16.50
2023-04-11T09:10:33.680Z,16.50
2023-04-11T09:11:51.486Z,16.53
2023-04-11T09:12:55.048Z,16.52
2023-04-11T09:14:08.647Z,16.54
2023-04-11T09:15:21.227Z,16.57
2023-04-11T09:16:25.177Z,16.57
2023-04-11T09:17:42.071Z,16.59
2023-04-11T09:18:47.556Z,16.59
2023-04-11T09:19:51.020Z,16.61
2023-04-11T09:21:00.410Z,16.63
2023-04-11T09:22:06.262Z,16.63
2023-04-11T09:23:27.131Z,16.65
2023-04-11T09:24:32.037Z,16.66
2023-04-11T09:25:45.784Z,16.67
2023-04-11T09:26:48.177Z,16.67
2023-04-11T09:28:07.845Z,16.69
2023-04-11T09:29:10.640Z,16.70
2023-04-11T09:30:24.548Z,16.70
2023-04-11T09:31:41.476Z,16.70
2023-04-11T09:32:46.201Z,16.68
2023-04-11T09:33:57.922Z,16.67
2023-04-11T09:35:11.616Z,16.69
2023-04-11T09:36:22.954Z,16.69
2023-04-11T09:37:25.632Z,16.67
2023-04-11T09:38:30.865Z,16.69
2023-04-11T09:39:34.531Z,16.70
2023-04-11T09:40:42.817Z,16.72
2023-04-11T09:41:46.470Z,16.72
2023-04-11T09:42:50.119Z,16.73
2023-04-11T09:43:57.182Z,16.73
2023-04-11T09:45:00.454Z,16.75
2023-04-11T09:46:12.155Z,16.74
2023-04-11T09:47:15.946Z,16.74
2023-04-11T09:48:19.689Z,16.74
2023-04-11T09:49:22.700Z,16.76
2023-04-11T09:50:27.683Z,16.75
2023-04-11T09:51:36.459Z,16.78
2023-04-11T09:52:43.022Z,16.76
2023-04-11T09:53:47.262Z,16.77
2023-04-11T09:54:53.733Z,16.77
2023-04-11T09:55:56.167Z,16.76
2023-04-11T09:57:00.531Z,16.77
2023-04-11T09:58:07.269Z,16.78
2023-04-11T09:59:10.737Z,16.77
2023-04-11T10:00:17.324Z,16.78
2023-04-11T10:01:24.544Z,16.78
2023-04-11T10:02:28.171Z,16.79
2023-04-11T10:03:34.868Z,16.78
2023-04-11T10:04:38.633Z,16.78
2023-04-11T10:05:42.567Z,16.79
2023-04-11T10:06:58.193Z,16.80
2023-04-11T10:08:08.046Z,16.79
2023-04-11T10:09:13.781Z,16.80
2023-04-11T10:10:20.126Z,16.78
2023-04-11T10:11:29.268Z,16.79
2023-04-11T10:12:32.999Z,16.80
2023-04-11T10:13:44.232Z,16.81
2023-04-11T10:14:47.902Z,16.79
2023-04-11T10:16:06.417Z,16.81
2023-04-11T10:17:22.019Z,16.81
2023-04-11T10:18:26.634Z,16.79
2023-04-11T10:19:30.160Z,16.79
2023-04-11T10:20:48.339Z,16.79
2023-04-11T10:21:50.912Z,16.79
2023-04-11T10:23:01.921Z,16.79
2023-04-11T10:24:09.317Z,16.79
2023-04-11T10:25:19.398Z,16.79
2023-04-11T10:26:21.861Z,16.79
2023-04-11T10:27:50.199Z,16.79
2023-04-11T10:28:53.646Z,16.78
2023-04-11T10:29:56.206Z,16.78
2023-04-11T10:31:04.980Z,16.79
2023-04-11T10:32:13.012Z,16.80
2023-04-11T10:33:20.669Z,16.80
2023-04-11T10:34:23.403Z,16.80
2023-04-11T10:35:27.178Z,16.80
2023-04-11T10:37:08.609Z,16.80
2023-04-11T10:38:51.885Z,16.77
2023-04-11T10:40:10.308Z,16.75
2023-04-11T10:41:21.309Z,16.75
2023-04-11T10:42:27.727Z,16.75
2023-04-11T10:43:31.420Z,16.74
2023-04-11T10:44:35.327Z,16.76
2023-04-11T10:45:40.325Z,16.75
2023-04-11T10:46:48.791Z,16.78
2023-04-11T10:48:12.048Z,16.78
2023-04-11T10:49:33.367Z,16.77
2023-04-11T10:50:38.140Z,16.76
2023-04-11T10:51:42.346Z,16.76
2023-04-11T10:52:44.851Z,16.78
2023-04-11T10:53:48.272Z,16.78
2023-04-11T10:54:52.303Z,16.80
2023-04-11T10:55:55.903Z,16.79
2023-04-11T10:56:58.906Z,16.81
2023-04-11T10:58:07.063Z,16.82
2023-04-11T10:59:52.327Z,16.81
2023-04-11T11:01:25.920Z,16.79
2023-04-11T11:02:41.368Z,16.77
2023-04-11T11:04:01.076Z,16.77
2023-04-11T11:05:22.762Z,16.76
2023-04-11T11:06:26.994Z,16.76
2023-04-11T11:07:32.473Z,16.78
2023-04-11T11:08:38.128Z,16.79
2023-04-11T11:09:49.600Z,16.80
2023-04-11T11:10:52.210Z,16.81
2023-04-11T11:12:09.812Z,16.81
2023-04-11T11:13:20.856Z,16.82
2023-04-11T11:14:30.536Z,16.82
2023-04-11T11:15:37.397Z,16.81
2023-04-11T11:16:43.334Z,16.83
2023-04-11T11:17:46.692Z,16.84
2023-04-11T11:18:52.875Z,16.85
2023-04-11T11:19:56.754Z,16.85
2023-04-11T11:21:00.261Z,16.86
2023-04-11T11:22:05.061Z,16.87
2023-04-11T11:23:09.951Z,16.87
2023-04-11T11:24:13.281Z,16.87
2023-04-11T11:25:15.674Z,16.87
2023-04-11T11:26:19.122Z,16.90
2023-04-11T11:27:23.032Z,16.90
2023-04-11T11:29:35.133Z,16.90
2023-04-11T11:30:38.883Z,16.90
2023-04-11T11:31:45.623Z,16.90
2023-04-11T11:32:48.275Z,16.90
2023-04-11T11:33:52.687Z,16.89
2023-04-11T11:34:58.816Z,16.90
2023-04-11T11:36:07.904Z,16.91
2023-04-11T11:37:10.431Z,16.91
2023-04-11T11:38:14.796Z,16.91
2023-04-11T11:39:36.909Z,16.89
2023-04-11T11:40:59.753Z,16.88
2023-04-11T11:42:03.509Z,16.88
2023-04-11T11:43:27.508Z,16.88
2023-04-11T11:44:31.368Z,16.87
2023-04-11T11:45:34.866Z,16.89
2023-04-11T11:46:38.374Z,16.88
2023-04-11T11:47:44.838Z,16.90
2023-04-11T11:49:09.392Z,16.90
2023-04-11T11:50:25.014Z,16.90
2023-04-11T11:51:48.127Z,16.87
2023-04-11T11:52:51.386Z,16.88
2023-04-11T11:54:13.518Z,16.87
2023-04-11T11:55:32.369Z,16.87
2023-04-11T11:56:54.259Z,16.85
2023-04-11T11:58:01.159Z,16.86
2023-04-11T11:59:28.847Z,16.85
2023-04-11T12:00:38.941Z,16.85
2023-04-11T12:01:43.439Z,16.85
2023-04-11T12:02:46.271Z,16.86
2023-04-11T12:03:51.820Z,16.87
2023-04-11T12:04:58.239Z,16.87
2023-04-11T12:06:03.176Z,16.88
2023-04-11T12:07:25.178Z,16.87
2023-04-11T12:08:28.543Z,16.88
2023-04-11T12:09:31.345Z,16.88
2023-04-11T12:10:40.019Z,16.90
2023-04-11T12:11:45.956Z,16.90
2023-04-11T12:12:53.342Z,16.90
2023-04-11T12:13:58.400Z,16.90
2023-04-11T12:15:03.692Z,16.90
2023-04-11T12:16:07.735Z,16.90
2023-04-11T12:17:10.587Z,16.91
2023-04-11T12:18:14.088Z,16.91
2023-04-11T12:19:17.862Z,16.91
2023-04-11T12:20:22.660Z,16.91
2023-04-11T12:21:28.047Z,16.92
2023-04-11T12:22:30.603Z,16.93
2023-04-11T12:23:34.447Z,16.92
2023-04-11T12:24:36.871Z,16.93
2023-04-11T12:25:41.054Z,16.93
2023-04-11T12:26:52.979Z,16.95
2023-04-11T12:28:07.346Z,16.92
2023-04-11T12:29:12.533Z,16.94
2023-04-11T12:30:15.594Z,16.93
2023-04-11T12:31:37.823Z,16.93
2023-04-11T12:32:47.263Z,16.94
2023-04-11T12:33:50.843Z,16.93
2023-04-11T12:34:54.198Z,16.94
2023-04-11T12:35:57.880Z,16.93
2023-04-11T12:37:01.673Z,16.94
2023-04-11T12:38:05.253Z,16.95
2023-04-11T12:39:08.579Z,16.95
2023-04-11T12:40:12.628Z,16.96
2023-04-11T12:41:31.653Z,16.96
2023-04-11T12:42:39.072Z,16.94
2023-04-11T12:43:48.759Z,16.94
2023-04-11T12:44:51.744Z,16.95
2023-04-11T12:45:55.522Z,16.95
2023-04-11T12:46:59.064Z,16.94
2023-04-11T12:48:02.676Z,16.95
2023-04-11T12:49:05.304Z,16.95
2023-04-11T12:50:09.636Z,16.95
2023-04-11T12:51:13.209Z,16.96
2023-04-11T12:52:18.051Z,16.96
2023-04-11T12:53:23.021Z,16.96
2023-04-11T12:54:26.482Z,16.96
2023-04-11T12:55:31.223Z,16.96
2023-04-11T12:56:34.143Z,16.96
2023-04-11T12:57:37.764Z,16.96
2023-04-11T12:58:41.242Z,16.96
2023-04-11T12:59:44.766Z,16.96
2023-04-11T13:00:48.730Z,16.96
2023-04-11T13:01:51.196Z,16.96
2023-04-11T13:02:55.070Z,16.98
2023-04-11T13:03:58.134Z,16.97
2023-04-11T13:05:06.460Z,16.98
2023-04-11T13:06:10.128Z,16.97
2023-04-11T13:07:12.639Z,16.97
2023-04-11T13:08:17.349Z,16.98
2023-04-11T13:09:19.866Z,16.97
2023-04-11T13:10:23.425Z,16.98
2023-04-11T13:11:25.824Z,16.98
2023-04-11T13:12:29.278Z,16.98
2023-04-11T13:13:33.037Z,16.98
2023-04-11T13:14:37.647Z,16.98
2023-04-11T13:15:41.823Z,16.98
2023-04-11T13:16:46.006Z,16.98
2023-04-11T13:17:49.466Z,16.98
2023-04-11T13:18:51.948Z,16.98
2023-04-11T13:19:55.358Z,16.99
2023-04-11T13:20:58.820Z,16.99
2023-04-11T13:22:01.783Z,16.98
2023-04-11T13:23:06.136Z,16.98
2023-04-11T13:24:10.031Z,17.00
2023-04-11T13:25:13.690Z,16.98
2023-04-11T13:26:17.258Z,16.98
2023-04-11T13:27:22.188Z,16.98
2023-04-11T13:28:26.092Z,16.97
2023-04-11T13:29:30.773Z,16.99
2023-04-11T13:30:33.293Z,16.97
2023-04-11T13:31:36.790Z,16.98
2023-04-11T13:32:40.570Z,16.98
2023-04-11T13:33:44.855Z,16.96
2023-04-11T13:34:48.306Z,16.97
2023-04-11T13:35:51.932Z,16.98
2023-04-11T13:36:56.751Z,16.96
2023-04-11T13:38:02.663Z,16.96
2023-04-11T13:39:06.161Z,16.96
2023-04-11T13:40:12.669Z,16.98
2023-04-11T13:41:16.217Z,16.98
2023-04-11T13:42:22.448Z,16.98
2023-04-11T13:43:24.946Z,16.98
2023-04-11T13:44:28.382Z,16.98
2023-04-11T13:45:30.944Z,16.98
2023-04-11T13:46:34.634Z,16.97
2023-04-11T13:47:38.624Z,16.96
2023-04-11T13:48:42.515Z,16.96
2023-04-11T13:49:45.921Z,16.98
2023-04-11T13:50:48.375Z,16.97
2023-04-11T13:51:51.900Z,16.97
2023-04-11T13:52:54.507Z,16.98
2023-04-11T13:53:57.883Z,16.97
2023-04-11T13:55:00.542Z,16.96
2023-04-11T13:56:05.503Z,16.96
2023-04-11T13:57:09.737Z,16.97
2023-04-11T13:58:14.412Z,16.97
2023-04-11T13:59:18.058Z,16.97